createdAt,value
2018-07-04T00:00:06.355Z,101250.45
2018-07-04T00:02:46.640Z,101253.20
2018-07-04T00:05:26.919Z,101250.66
2018-07-04T00:08:07.484Z,101257.94
2018-07-04T00:10:48.004Z,101255.27
2018-07-04T00:13:28.198Z,101254.91
2018-07-04T00:16:08.707Z,101251.78
2018-07-04T00:18:49.226Z,101247.41
2018-07-04T00:21:29.415Z,101246.51
2018-07-04T00:24:09.797Z,101252.11
2018-07-04T00:26:50.101Z,101246.02
2018-07-04T00:29:30.569Z,101237.95
2018-07-04T00:32:11.028Z,101236.84
2018-07-04T00:34:51.544Z,101238.50
2018-07-04T00:37:31.543Z,101244.17
2018-07-04T00:40:12.102Z,101245.95
2018-07-04T00:42:52.555Z,101241.95
2018-07-04T00:45:32.928Z,101242.63
2018-07-04T00:48:13.184Z,101239.16
2018-07-04T00:50:53.851Z,101246.26
2018-07-04T00:53:34.432Z,101245.44
2018-07-04T00:56:14.870Z,101253.70
2018-07-04T00:58:55.134Z,101213.81
2018-07-04T01:01:35.763Z,101247.70
2018-07-04T01:04:15.852Z,101252.12
2018-07-04T01:06:56.410Z,101246.86
2018-07-04T01:09:36.668Z,101247.55
2018-07-04T01:12:17.058Z,101240.83
2018-07-04T01:14:57.367Z,101243.73
2018-07-04T01:17:37.850Z,101253.55
2018-07-04T01:20:18.109Z,101252.69
2018-07-04T01:22:58.779Z,101248.60
2018-07-04T01:25:38.950Z,101249.26
2018-07-04T01:28:19.517Z,101247.19
2018-07-04T01:30:59.647Z,101246.08
2018-07-04T01:33:40.105Z,101248.95
2018-07-04T01:36:20.361Z,101254.28
2018-07-04T01:39:01.053Z,101251.41
2018-07-04T01:41:41.309Z,101246.91
2018-07-04T01:44:22.361Z,101248.38
2018-07-04T01:47:02.840Z,101250.52
2018-07-04T01:49:43.434Z,101250.66
2018-07-04T01:52:23.645Z,101249.17
2018-07-04T01:55:03.877Z,101254.60
2018-07-04T01:57:44.234Z,101249.48
2018-07-04T02:00:25.018Z,101258.56
2018-07-04T02:03:05.187Z,101247.56
2018-07-04T02:05:45.677Z,101242.35
2018-07-04T02:08:26.001Z,101250.73
2018-07-04T02:11:06.393Z,101246.63
2018-07-04T02:13:46.838Z,101243.92
2018-07-04T02:16:27.356Z,101244.71
2018-07-04T02:19:07.490Z,101246.56
2018-07-04T02:21:48.302Z,101242.06
2018-07-04T02:24:28.557Z,101217.61
2018-07-04T02:27:09.030Z,101247.39
2018-07-04T02:29:49.390Z,101254.65
2018-07-04T02:32:29.791Z,101246.90
2018-07-04T02:35:10.414Z,101250.89
2018-07-04T02:37:51.184Z,101246.23
2018-07-04T02:40:31.362Z,101255.16
2018-07-04T02:43:11.732Z,101247.91
2018-07-04T02:45:52.434Z,101246.13
2018-07-04T02:48:32.722Z,101240.91
2018-07-04T02:51:12.979Z,101250.41
2018-07-04T02:53:53.764Z,101248.33
2018-07-04T02:56:34.109Z,101244.78
2018-07-04T02:59:14.604Z,101244.84
2018-07-04T03:01:54.825Z,101237.94
2018-07-04T03:04:35.294Z,101234.84
2018-07-04T03:07:15.580Z,101234.59
2018-07-04T03:09:56.011Z,101243.91
2018-07-04T03:12:36.263Z,101245.27
2018-07-04T03:15:17.004Z,101247.97
2018-07-04T03:17:57.272Z,101238.34
2018-07-04T03:20:37.969Z,101240.13
2018-07-04T03:23:18.322Z,101241.97
2018-07-04T03:25:59.011Z,101245.95
2018-07-04T03:28:39.346Z,101241.00
2018-07-04T03:31:19.808Z,101237.58
2018-07-04T03:34:00.056Z,101233.59
2018-07-04T03:36:40.505Z,101232.33
2018-07-04T03:39:20.881Z,101235.06
2018-07-04T03:42:01.548Z,101227.98
2018-07-04T03:44:41.701Z,101223.02
2018-07-04T03:47:22.545Z,101231.32
2018-07-04T03:50:02.726Z,101231.68
2018-07-04T03:52:43.088Z,101225.05
2018-07-04T03:55:23.323Z,101227.33
2018-07-04T03:58:03.707Z,101223.77
2018-07-04T04:00:43.802Z,101221.50
2018-07-04T04:03:24.240Z,101222.36
2018-07-04T04:06:04.501Z,101228.52
2018-07-04T04:08:45.140Z,101223.01
2018-07-04T04:11:25.293Z,101220.70
2018-07-04T04:14:05.659Z,101221.02
2018-07-04T04:16:46.024Z,101220.52
2018-07-04T04:19:32.492Z,101218.69
2018-07-04T04:22:13.387Z,101221.62
2018-07-04T04:24:53.564Z,101218.70
2018-07-04T04:27:33.727Z,101216.78
2018-07-04T04:30:14.064Z,101216.70
2018-07-04T04:32:54.416Z,101219.01
2018-07-04T04:35:34.897Z,101218.25
2018-07-04T04:38:15.030Z,101226.17
2018-07-04T04:40:55.525Z,101222.00
2018-07-04T04:43:35.565Z,101228.98
2018-07-04T04:46:15.936Z,101231.36
2018-07-04T04:48:56.670Z,101236.44
2018-07-04T04:51:37.301Z,101237.99
2018-07-04T04:54:17.595Z,101240.72
2018-07-04T04:56:57.962Z,101007.45
2018-07-04T04:59:38.132Z,101236.83
2018-07-04T05:02:18.521Z,101240.23
2018-07-04T05:04:58.702Z,101233.82
2018-07-04T05:07:39.033Z,101242.30
2018-07-04T05:10:19.281Z,101238.30
2018-07-04T05:12:59.728Z,101229.67
2018-07-04T05:15:39.809Z,101234.65
2018-07-04T05:18:20.336Z,101236.11
2018-07-04T05:21:00.685Z,101229.59
2018-07-04T05:23:41.242Z,101234.05
2018-07-04T05:26:21.681Z,101229.56
2018-07-04T05:29:02.098Z,101229.71
2018-07-04T05:31:42.425Z,101233.08
2018-07-04T05:34:22.985Z,101239.47
2018-07-04T05:37:03.243Z,101242.34
2018-07-04T05:39:43.790Z,101243.48
2018-07-04T05:42:23.909Z,101242.14
2018-07-04T05:45:04.281Z,101241.44
2018-07-04T05:47:44.393Z,101240.40
2018-07-04T05:50:25.072Z,101239.27
2018-07-04T05:53:05.065Z,101239.38
2018-07-04T05:55:45.658Z,101237.61
2018-07-04T05:58:25.893Z,101237.42
2018-07-04T06:01:06.305Z,101238.16
2018-07-04T06:03:46.528Z,101240.90
2018-07-04T06:06:27.023Z,101239.77
2018-07-04T06:09:07.497Z,101239.98
2018-07-04T06:11:48.099Z,101242.69
2018-07-04T06:14:28.270Z,101238.97
2018-07-04T06:17:08.782Z,101238.23
2018-07-04T06:19:48.932Z,101230.80
2018-07-04T06:22:29.373Z,101238.81
2018-07-04T06:25:09.810Z,101236.38
2018-07-04T06:27:50.405Z,101238.42
2018-07-04T06:30:30.553Z,101243.07
2018-07-04T06:33:11.012Z,101233.55
2018-07-04T06:35:51.245Z,101234.35
2018-07-04T06:38:19.337Z,101235.16
2018-07-04T06:40:47.183Z,101229.19
2018-07-04T06:43:15.051Z,101224.44
2018-07-04T06:45:43.279Z,101227.56
2018-07-04T06:48:11.296Z,101227.59
2018-07-04T06:50:39.479Z,101231.24
2018-07-04T06:53:07.493Z,101225.47
2018-07-04T06:55:35.412Z,101221.08
2018-07-04T06:58:03.286Z,101226.06
2018-07-04T07:00:31.376Z,101230.93
2018-07-04T07:03:11.422Z,101234.67
2018-07-04T07:05:52.068Z,101239.32
2018-07-04T07:08:32.652Z,101245.89
2018-07-04T07:11:13.401Z,101241.36
2018-07-04T07:13:53.962Z,101244.80
2018-07-04T07:16:34.320Z,101243.05
2018-07-04T07:19:14.984Z,101244.89
2018-07-04T07:21:55.194Z,101235.83
2018-07-04T07:24:35.606Z,101238.16
2018-07-04T07:27:15.965Z,101229.59
2018-07-04T07:29:56.528Z,101233.61
2018-07-04T07:32:36.680Z,101225.86
2018-07-04T07:35:17.346Z,101222.95
2018-07-04T07:37:57.505Z,101228.84
2018-07-04T07:40:38.065Z,101215.09
2018-07-04T07:43:18.428Z,101210.78
2018-07-04T07:45:58.884Z,101209.63
2018-07-04T07:48:39.367Z,101216.98
2018-07-04T07:51:20.045Z,101213.84
2018-07-04T07:54:00.426Z,101217.69
2018-07-04T07:56:40.983Z,101212.02
2018-07-04T07:59:21.296Z,101211.15
2018-07-04T08:02:01.861Z,101209.30
2018-07-04T08:04:42.019Z,101212.24
2018-07-04T08:07:22.681Z,101211.66
2018-07-04T08:10:03.048Z,101138.37
2018-07-04T08:12:43.581Z,101229.47
2018-07-04T08:15:23.783Z,101221.31
2018-07-04T08:18:04.300Z,101219.59
2018-07-04T08:20:44.512Z,101217.47
2018-07-04T08:23:25.016Z,101217.44
2018-07-04T08:26:05.173Z,101210.84
2018-07-04T08:28:45.661Z,101214.02
2018-07-04T08:31:25.917Z,101207.23
2018-07-04T08:34:06.582Z,101207.63
2018-07-04T08:36:46.937Z,101211.19
2018-07-04T08:39:27.338Z,101204.12
2018-07-04T08:42:07.554Z,101210.92
2018-07-04T08:44:48.168Z,101208.23
2018-07-04T08:47:28.482Z,101211.80
2018-07-04T08:50:08.839Z,101208.39
2018-07-04T08:52:50.056Z,101209.23
2018-07-04T08:55:30.477Z,101206.16
2018-07-04T08:58:11.146Z,101212.80
2018-07-04T09:00:51.739Z,101214.04
2018-07-04T09:03:32.374Z,101217.67
2018-07-04T09:06:12.529Z,101216.54
2018-07-04T09:08:53.300Z,101220.24
2018-07-04T09:11:33.430Z,101219.95
2018-07-04T09:14:13.811Z,101213.82
2018-07-04T09:16:54.512Z,101219.69
2018-07-04T09:19:34.839Z,101225.55
2018-07-04T09:22:15.324Z,101224.73
2018-07-04T09:24:55.763Z,101222.84
2018-07-04T09:27:35.888Z,101221.02
2018-07-04T09:30:16.279Z,101222.73
2018-07-04T09:32:56.874Z,101225.20
2018-07-04T09:35:37.463Z,101220.23
2018-07-04T09:38:17.812Z,101224.38
2018-07-04T09:40:58.427Z,101222.30
2018-07-04T09:43:38.613Z,101217.20
2018-07-04T09:46:18.976Z,101223.48
2018-07-04T09:48:59.231Z,101225.71
2018-07-04T09:51:39.584Z,101223.17
2018-07-04T09:54:20.057Z,101216.83
2018-07-04T09:57:00.842Z,101208.88
2018-07-04T09:59:41.250Z,101209.49
2018-07-04T10:02:21.613Z,101210.48
2018-07-04T10:05:01.907Z,101203.48
2018-07-04T10:07:42.225Z,101204.73
2018-07-04T10:10:22.688Z,101204.84
2018-07-04T10:13:03.152Z,101198.11
2018-07-04T10:15:43.275Z,101203.70
2018-07-04T10:18:23.849Z,101199.34
2018-07-04T10:21:04.083Z,101197.53
2018-07-04T10:23:44.506Z,101200.73
2018-07-04T10:26:25.095Z,101193.13
2018-07-04T10:29:05.639Z,101194.58
2018-07-04T10:31:45.922Z,101186.84
2018-07-04T10:34:26.675Z,101184.63
2018-07-04T10:37:06.793Z,101181.77
2018-07-04T10:39:47.297Z,101182.73
2018-07-04T10:42:27.643Z,101186.92
2018-07-04T10:45:08.009Z,101185.95
2018-07-04T10:47:48.126Z,101185.87
2018-07-04T10:50:28.934Z,101184.17
2018-07-04T10:53:09.050Z,101187.38
2018-07-04T10:55:49.460Z,101188.97
2018-07-04T10:58:29.641Z,101181.11
2018-07-04T11:01:10.230Z,101182.93
2018-07-04T11:03:50.385Z,101189.75
2018-07-04T11:06:31.049Z,101192.91
2018-07-04T11:09:11.133Z,101191.56
2018-07-04T11:11:51.695Z,101188.92
2018-07-04T11:14:31.923Z,101190.67
2018-07-04T11:17:12.471Z,101192.52
2018-07-04T11:19:52.711Z,101183.39
2018-07-04T11:22:33.096Z,101186.17
2018-07-04T11:25:13.350Z,101187.06
2018-07-04T11:27:53.718Z,101176.16
2018-07-04T11:30:33.890Z,101176.52
2018-07-04T11:33:14.338Z,101175.67
2018-07-04T11:35:54.646Z,101182.13
2018-07-04T11:38:35.189Z,101178.71
2018-07-04T11:41:15.519Z,101175.95
2018-07-04T11:43:56.168Z,101177.30
2018-07-04T11:46:23.874Z,101174.65
2018-07-04T11:48:51.718Z,101171.77
2018-07-04T11:51:19.709Z,101161.75
2018-07-04T11:53:47.650Z,101163.77
2018-07-04T11:56:15.723Z,101164.88
2018-07-04T11:58:43.788Z,101163.17
2018-07-04T12:01:11.962Z,101162.56
2018-07-04T12:03:52.321Z,101161.06
2018-07-04T12:06:32.800Z,101154.54
2018-07-04T12:09:00.753Z,101159.43
2018-07-04T12:11:28.558Z,101157.27
2018-07-04T12:13:56.590Z,101154.53
2018-07-04T12:16:24.865Z,101157.72
2018-07-04T12:18:52.765Z,101159.44
2018-07-04T12:21:20.599Z,101160.70
2018-07-04T12:23:48.899Z,101151.53
2018-07-04T12:26:17.695Z,101148.84
2018-07-04T12:28:45.526Z,101139.66
2018-07-04T12:31:13.650Z,101143.27
2018-07-04T12:33:41.611Z,101145.45
2018-07-04T12:36:09.363Z,101145.22
2018-07-04T12:38:37.433Z,101135.39
2018-07-04T12:41:05.254Z,101138.79
2018-07-04T12:43:33.297Z,101140.84
2018-07-04T12:46:01.472Z,101140.11
2018-07-04T12:48:29.406Z,101140.73
2018-07-04T12:50:57.270Z,101142.07
2018-07-04T12:53:25.037Z,101151.03
2018-07-04T12:56:05.586Z,101149.27
2018-07-04T12:58:46.023Z,101146.88
2018-07-04T13:01:26.917Z,101144.88
2018-07-04T13:04:07.093Z,101142.35
2018-07-04T13:06:47.271Z,101137.48
2018-07-04T13:09:27.712Z,101126.48
2018-07-04T13:12:07.774Z,101132.20
2018-07-04T13:14:48.328Z,101127.52
2018-07-04T13:17:28.552Z,101127.88
2018-07-04T13:20:09.011Z,101126.48
2018-07-04T13:25:59.949Z,101123.02
2018-07-04T13:28:40.095Z,101120.17
2018-07-04T13:31:20.482Z,101119.47
2018-07-04T13:34:00.685Z,101126.25
2018-07-04T13:36:41.073Z,101109.70
2018-07-04T13:39:21.273Z,101111.80
2018-07-04T13:42:01.833Z,101102.80
2018-07-04T13:44:42.026Z,101093.59
2018-07-04T13:47:22.530Z,101092.02
2018-07-04T13:50:02.764Z,101094.39
2018-07-04T13:52:43.329Z,101091.34
2018-07-04T13:55:23.485Z,101093.54
2018-07-04T13:58:04.660Z,101087.79
2018-07-04T14:00:45.326Z,101086.09
2018-07-04T14:03:25.858Z,101088.61
2018-07-04T14:06:06.146Z,101083.30
2018-07-04T14:08:46.813Z,101087.05
2018-07-04T14:11:27.480Z,101081.29
2018-07-04T14:14:08.045Z,101078.77
2018-07-04T14:16:48.246Z,101075.31
2018-07-04T14:19:28.768Z,101075.66
2018-07-04T14:22:09.005Z,101080.41
2018-07-04T14:24:49.590Z,101073.09
2018-07-04T14:27:29.994Z,101083.79
2018-07-04T14:30:10.712Z,101073.33
2018-07-04T14:32:51.279Z,101067.10
2018-07-04T14:35:31.700Z,101070.51
2018-07-04T14:38:12.100Z,101065.53
2018-07-04T14:40:52.869Z,101065.46
2018-07-04T14:43:33.228Z,101063.95
2018-07-04T14:46:13.690Z,101059.94
2018-07-04T14:48:53.950Z,101058.78
2018-07-04T14:51:34.304Z,101062.20
2018-07-04T14:54:14.559Z,101061.65
2018-07-04T14:56:55.228Z,101059.38
2018-07-04T14:59:35.468Z,101050.77
2018-07-04T15:02:16.151Z,101058.78
2018-07-04T15:04:56.508Z,101052.13
2018-07-04T15:07:36.927Z,101052.61
2018-07-04T15:10:17.227Z,101054.13
2018-07-04T15:12:57.631Z,101047.20
2018-07-04T15:15:37.877Z,101045.30
2018-07-04T15:18:18.334Z,101041.85
2018-07-04T15:20:58.510Z,101045.77
2018-07-04T15:23:39.153Z,101042.41
2018-07-04T15:26:19.582Z,101044.73
2018-07-04T15:29:00.349Z,100969.59
2018-07-04T15:31:40.614Z,101047.34
2018-07-04T15:34:21.927Z,101041.49
2018-07-04T15:37:02.365Z,101038.75
2018-07-04T15:39:43.514Z,101038.92
2018-07-04T15:42:24.404Z,101035.61
2018-07-04T15:45:05.178Z,101034.11
2018-07-04T15:47:45.535Z,101032.16
2018-07-04T15:50:25.929Z,101041.70
2018-07-04T15:53:06.563Z,101037.92
2018-07-04T15:55:47.273Z,101038.44
2018-07-04T15:58:27.500Z,101038.44
2018-07-04T16:01:07.950Z,101037.07
2018-07-04T16:03:48.660Z,101032.47
2018-07-04T16:06:29.325Z,101023.70
2018-07-04T16:09:09.536Z,101022.58
2018-07-04T16:11:50.060Z,101026.48
2018-07-04T16:14:30.568Z,101026.98
2018-07-04T16:17:11.176Z,101019.20
2018-07-04T16:19:51.957Z,101021.16
2018-07-04T16:22:32.438Z,101021.66
2018-07-04T16:25:12.675Z,101020.18
2018-07-04T16:27:53.185Z,101013.77
2018-07-04T16:30:33.480Z,101018.58
2018-07-04T16:33:14.105Z,101011.73
2018-07-04T16:35:54.572Z,101012.63
2018-07-04T16:38:35.334Z,101002.77
2018-07-04T16:41:15.696Z,101003.01
2018-07-04T16:43:56.202Z,101001.70
2018-07-04T16:46:36.491Z,100996.42
2018-07-04T16:49:17.081Z,100990.98
2018-07-04T16:51:57.641Z,100990.03
2018-07-04T16:54:37.839Z,100985.59
2018-07-04T16:57:18.055Z,100991.81
2018-07-04T16:59:58.517Z,100992.55
2018-07-04T17:02:38.925Z,100984.59
2018-07-04T17:05:19.924Z,100983.42
2018-07-04T17:08:00.715Z,100985.47
2018-07-04T17:10:40.875Z,100989.44
2018-07-04T17:13:21.465Z,100988.22
2018-07-04T17:16:01.596Z,100990.84
2018-07-04T17:18:42.082Z,100984.77
2018-07-04T17:21:22.426Z,100985.46
2018-07-04T17:24:02.943Z,100987.45
2018-07-04T17:26:43.288Z,100979.27
2018-07-04T17:29:23.697Z,100987.14
2018-07-04T17:32:03.894Z,100980.38
2018-07-04T17:34:44.495Z,100976.91
2018-07-04T17:37:24.670Z,100972.66
2018-07-04T17:40:05.234Z,100975.16
2018-07-04T17:42:45.311Z,100967.45
2018-07-04T17:45:25.850Z,100971.34
2018-07-04T17:48:06.417Z,100964.81
2018-07-04T17:50:47.280Z,100964.45
2018-07-04T17:53:27.578Z,100958.32
2018-07-04T17:56:08.229Z,100959.88
2018-07-04T17:58:48.245Z,100962.50
2018-07-04T18:01:28.791Z,100960.77
2018-07-04T18:04:09.026Z,100956.92
2018-07-04T18:06:49.713Z,100961.99
2018-07-04T18:09:29.821Z,100958.83
2018-07-04T18:12:10.562Z,100955.39
2018-07-04T18:14:50.720Z,100960.52
2018-07-04T18:17:30.910Z,100959.41
2018-07-04T18:20:11.500Z,100951.85
2018-07-04T18:22:51.904Z,100949.80
2018-07-04T18:25:32.056Z,100948.12
2018-07-04T18:28:12.431Z,100948.35
2018-07-04T18:30:52.515Z,100942.52
2018-07-04T18:33:32.837Z,100943.47
2018-07-04T18:36:12.878Z,100942.20
2018-07-04T18:38:53.561Z,100937.78
2018-07-04T18:41:33.456Z,100948.20
2018-07-04T18:44:13.795Z,100942.91
2018-07-04T18:46:53.999Z,100949.38
2018-07-04T18:49:34.207Z,100950.08
2018-07-04T18:52:14.420Z,100946.86
2018-07-04T18:54:54.778Z,100953.11
2018-07-04T18:57:34.938Z,100949.00
2018-07-04T19:00:15.109Z,100949.00
2018-07-04T19:02:55.450Z,100954.55
2018-07-04T19:05:35.977Z,100950.20
2018-07-04T19:08:16.504Z,100942.95
2018-07-04T19:10:56.670Z,100946.94
2018-07-04T19:13:36.989Z,100945.22
2018-07-04T19:16:17.246Z,100946.16
2018-07-04T19:18:57.634Z,100942.77
2018-07-04T19:21:37.804Z,100941.72
2018-07-04T19:24:18.220Z,100940.61
2018-07-04T19:26:58.370Z,100944.36
2018-07-04T19:29:38.684Z,100943.38
2018-07-04T19:32:18.857Z,100940.74
2018-07-04T19:34:59.388Z,100937.88
2018-07-04T19:37:39.461Z,100756.36
2018-07-04T19:40:19.596Z,100936.31
2018-07-04T19:42:59.709Z,100937.55
2018-07-04T19:45:40.276Z,100934.77
2018-07-04T19:48:20.360Z,100933.19
2018-07-04T19:51:00.784Z,100938.80
2018-07-04T19:53:40.839Z,100933.34
2018-07-04T19:56:21.029Z,100931.09
2018-07-04T19:59:01.246Z,100926.80
2018-07-04T20:01:41.655Z,100930.70
2018-07-04T20:04:21.602Z,100933.67
2018-07-04T20:07:02.085Z,100932.05
2018-07-04T20:09:42.480Z,100932.59
2018-07-04T20:12:22.742Z,100931.66
2018-07-04T20:15:03.208Z,100929.25
2018-07-04T20:17:43.565Z,100928.04
2018-07-04T20:20:24.019Z,100901.80
2018-07-04T20:23:04.528Z,100923.77
2018-07-04T20:25:44.850Z,100932.98
2018-07-04T20:28:25.149Z,100927.34
2018-07-04T20:31:05.259Z,100932.69
2018-07-04T20:33:46.022Z,100928.42
2018-07-04T20:36:26.696Z,100924.41
2018-07-04T20:39:07.200Z,100926.29
2018-07-04T20:41:47.771Z,100930.67
2018-07-04T20:44:28.540Z,100932.30
2018-07-04T20:47:08.971Z,100925.61
2018-07-04T20:49:49.685Z,100925.32
2018-07-04T20:52:30.009Z,100920.92
2018-07-04T20:55:10.781Z,100914.91
2018-07-04T20:57:50.946Z,100915.57
2018-07-04T21:00:31.534Z,100912.48
2018-07-04T21:03:15.297Z,100916.23
2018-07-04T21:05:55.900Z,100910.76
2018-07-04T21:08:36.077Z,100909.13
2018-07-04T21:11:18.729Z,100906.33
2018-07-04T21:14:00.936Z,100896.59
2018-07-04T21:16:41.852Z,100899.39
2018-07-04T21:19:21.988Z,100906.99
2018-07-04T21:22:02.461Z,100901.11
2018-07-04T21:24:42.784Z,100902.31
2018-07-04T21:27:23.046Z,100900.71
2018-07-04T21:30:03.500Z,100896.83
2018-07-04T21:32:43.984Z,100905.50
2018-07-04T21:35:24.425Z,100900.61
2018-07-04T21:38:05.099Z,100901.15
2018-07-04T21:40:45.549Z,100894.09
2018-07-04T21:43:25.948Z,100892.53
2018-07-04T21:46:06.380Z,100901.77
2018-07-04T21:48:46.858Z,100896.80
2018-07-04T21:51:27.366Z,100892.41
2018-07-04T21:54:08.892Z,100889.66
2018-07-04T21:56:49.534Z,100889.59
2018-07-04T21:59:29.923Z,100891.58
2018-07-04T22:02:10.241Z,100889.59
2018-07-04T22:04:50.661Z,100892.02
2018-07-04T22:07:31.193Z,100887.33
2018-07-04T22:10:11.919Z,100894.61
2018-07-04T22:12:52.339Z,100887.24
2018-07-04T22:15:32.990Z,100867.03
2018-07-04T22:18:13.140Z,100891.75
2018-07-04T22:20:53.588Z,100891.48
2018-07-04T22:23:33.940Z,100890.95
2018-07-04T22:26:14.274Z,100891.10
2018-07-04T22:28:54.467Z,100884.69
2018-07-04T22:31:35.400Z,100884.16
2018-07-04T22:34:15.705Z,100880.56
2018-07-04T22:36:56.399Z,100879.09
2018-07-04T22:39:37.455Z,100882.67
2018-07-04T22:42:17.861Z,100878.28
2018-07-04T22:44:58.271Z,100875.80
2018-07-04T22:47:38.771Z,100875.05
2018-07-04T22:50:19.107Z,100871.92
2018-07-04T22:52:59.359Z,100865.78
2018-07-04T22:55:39.604Z,100865.52
2018-07-04T22:58:20.166Z,100866.16
2018-07-04T23:01:00.638Z,100860.81
2018-07-04T23:03:41.400Z,100856.77
2018-07-04T23:06:21.625Z,100858.52
2018-07-04T23:09:02.086Z,100859.33
2018-07-04T23:11:42.370Z,100858.91
2018-07-04T23:14:23.261Z,100857.84
2018-07-04T23:17:03.456Z,100857.00
2018-07-04T23:19:43.764Z,100849.75
2018-07-04T23:22:24.089Z,100852.61
2018-07-04T23:25:04.374Z,100853.95
2018-07-04T23:27:44.736Z,100852.50
2018-07-04T23:30:25.198Z,100855.39
2018-07-04T23:33:05.658Z,100851.97
2018-07-04T23:35:46.076Z,100855.97
2018-07-04T23:38:26.482Z,100856.20
2018-07-04T23:41:06.942Z,100850.05
2018-07-04T23:43:47.439Z,100851.80
2018-07-04T23:46:27.887Z,100848.61
2018-07-04T23:49:08.562Z,100849.63
2018-07-04T23:51:48.709Z,100846.22
2018-07-04T23:54:29.351Z,100852.85
2018-07-04T23:57:09.753Z,100849.20
2018-07-04T23:59:50.071Z,100853.82
